sensor_id;sensor_type;location;lat;lon;timestamp;P1;durP1;ratioP1;P2;durP2;ratioP2
53281;SDS011;39167;52.794;6.892;2022-08-01T00:00:21;7.82;;;5.60;;
53281;SDS011;39167;52.794;6.892;2022-08-01T00:02:47;6.32;;;4.10;;
53281;SDS011;39167;52.794;6.892;2022-08-01T00:05:13;9.85;;;4.10;;
53281;SDS011;39167;52.794;6.892;2022-08-01T00:07:39;5.90;;;4.00;;
53281;SDS011;39167;52.794;6.892;2022-08-01T00:10:06;6.20;;;4.03;;
53281;SDS011;39167;52.794;6.892;2022-08-01T00:12:33;7.28;;;3.80;;
53281;SDS011;39167;52.794;6.892;2022-08-01T00:14:59;6.20;;;3.30;;
53281;SDS011;39167;52.794;6.892;2022-08-01T00:17:25;6.05;;;3.03;;
53281;SDS011;39167;52.794;6.892;2022-08-01T00:19:51;7.30;;;4.18;;
53281;SDS011;39167;52.794;6.892;2022-08-01T00:22:17;5.55;;;3.90;;
53281;SDS011;39167;52.794;6.892;2022-08-01T00:24:42;8.32;;;4.90;;
53281;SDS011;39167;52.794;6.892;2022-08-01T00:27:08;7.07;;;3.95;;
53281;SDS011;39167;52.794;6.892;2022-08-01T00:29:34;9.32;;;5.68;;
53281;SDS011;39167;52.794;6.892;2022-08-01T00:31:59;7.35;;;5.22;;
53281;SDS011;39167;52.794;6.892;2022-08-01T00:34:25;8.95;;;5.05;;
53281;SDS011;39167;52.794;6.892;2022-08-01T00:36:51;7.32;;;5.55;;
53281;SDS011;39167;52.794;6.892;2022-08-01T00:39:16;9.25;;;5.75;;
53281;SDS011;39167;52.794;6.892;2022-08-01T00:41:42;8.70;;;5.70;;
53281;SDS011;39167;52.794;6.892;2022-08-01T00:44:07;11.57;;;6.10;;
53281;SDS011;39167;52.794;6.892;2022-08-01T00:46:33;8.77;;;5.93;;
53281;SDS011;39167;52.794;6.892;2022-08-01T00:49:00;10.55;;;6.85;;
53281;SDS011;39167;52.794;6.892;2022-08-01T00:51:26;11.18;;;6.72;;
53281;SDS011;39167;52.794;6.892;2022-08-01T00:53:52;9.57;;;6.68;;
53281;SDS011;39167;52.794;6.892;2022-08-01T00:56:19;11.45;;;6.03;;
53281;SDS011;39167;52.794;6.892;2022-08-01T00:58:46;12.23;;;7.35;;
53281;SDS011;39167;52.794;6.892;2022-08-01T01:01:12;13.30;;;6.97;;
53281;SDS011;39167;52.794;6.892;2022-08-01T01:03:38;14.18;;;6.80;;
53281;SDS011;39167;52.794;6.892;2022-08-01T01:08:43;12.15;;;6.85;;
53281;SDS011;39167;52.794;6.892;2022-08-01T01:11:21;13.70;;;7.50;;
53281;SDS011;39167;52.794;6.892;2022-08-01T01:13:54;11.85;;;7.38;;
53281;SDS011;39167;52.794;6.892;2022-08-01T01:16:26;13.02;;;7.32;;
53281;SDS011;39167;52.794;6.892;2022-08-01T01:18:56;11.00;;;7.25;;
53281;SDS011;39167;52.794;6.892;2022-08-01T01:24:16;12.40;;;7.68;;
53281;SDS011;39167;52.794;6.892;2022-08-01T01:26:57;14.30;;;7.72;;
53281;SDS011;39167;52.794;6.892;2022-08-01T01:29:38;13.30;;;7.68;;
53281;SDS011;39167;52.794;6.892;2022-08-01T01:32:18;11.65;;;7.20;;
53281;SDS011;39167;52.794;6.892;2022-08-01T01:34:48;11.85;;;7.55;;
53281;SDS011;39167;52.794;6.892;2022-08-01T01:37:17;15.13;;;7.90;;
53281;SDS011;39167;52.794;6.892;2022-08-01T01:39:46;12.82;;;8.07;;
53281;SDS011;39167;52.794;6.892;2022-08-01T01:42:14;14.95;;;8.50;;
53281;SDS011;39167;52.794;6.892;2022-08-01T01:44:42;13.05;;;8.20;;
53281;SDS011;39167;52.794;6.892;2022-08-01T01:47:10;13.70;;;7.75;;
53281;SDS011;39167;52.794;6.892;2022-08-01T01:49:38;12.65;;;7.93;;
53281;SDS011;39167;52.794;6.892;2022-08-01T01:52:06;13.13;;;7.03;;
53281;SDS011;39167;52.794;6.892;2022-08-01T01:54:36;13.93;;;8.30;;
53281;SDS011;39167;52.794;6.892;2022-08-01T01:57:04;11.52;;;7.68;;
53281;SDS011;39167;52.794;6.892;2022-08-01T01:59:34;15.10;;;8.52;;
53281;SDS011;39167;52.794;6.892;2022-08-01T02:02:02;11.98;;;8.02;;
53281;SDS011;39167;52.794;6.892;2022-08-01T02:04:29;13.90;;;8.48;;
53281;SDS011;39167;52.794;6.892;2022-08-01T02:06:57;13.45;;;7.50;;
53281;SDS011;39167;52.794;6.892;2022-08-01T02:09:26;12.13;;;7.07;;
53281;SDS011;39167;52.794;6.892;2022-08-01T02:11:53;13.15;;;7.63;;
53281;SDS011;39167;52.794;6.892;2022-08-01T02:14:20;15.52;;;7.40;;
53281;SDS011;39167;52.794;6.892;2022-08-01T02:16:48;17.10;;;8.10;;
53281;SDS011;39167;52.794;6.892;2022-08-01T02:19:17;14.43;;;7.50;;
53281;SDS011;39167;52.794;6.892;2022-08-01T02:27:06;9.73;;;5.55;;
53281;SDS011;39167;52.794;6.892;2022-08-01T02:29:42;11.18;;;5.57;;
53281;SDS011;39167;52.794;6.892;2022-08-01T02:32:13;9.63;;;5.25;;
53281;SDS011;39167;52.794;6.892;2022-08-01T02:34:52;8.93;;;5.82;;
53281;SDS011;39167;52.794;6.892;2022-08-01T02:37:20;9.18;;;5.18;;
53281;SDS011;39167;52.794;6.892;2022-08-01T02:39:47;7.70;;;5.07;;
53281;SDS011;39167;52.794;6.892;2022-08-01T02:42:15;7.93;;;4.93;;
53281;SDS011;39167;52.794;6.892;2022-08-01T02:44:44;11.98;;;6.00;;
53281;SDS011;39167;52.794;6.892;2022-08-01T02:47:13;6.30;;;4.43;;
53281;SDS011;39167;52.794;6.892;2022-08-01T02:49:44;10.33;;;5.30;;
53281;SDS011;39167;52.794;6.892;2022-08-01T02:52:15;7.68;;;4.88;;
53281;SDS011;39167;52.794;6.892;2022-08-01T02:54:45;11.32;;;4.95;;
53281;SDS011;39167;52.794;6.892;2022-08-01T02:57:15;10.27;;;5.07;;
53281;SDS011;39167;52.794;6.892;2022-08-01T02:59:43;11.07;;;4.93;;
53281;SDS011;39167;52.794;6.892;2022-08-01T03:02:10;5.70;;;4.05;;
53281;SDS011;39167;52.794;6.892;2022-08-01T03:04:38;7.97;;;4.53;;
53281;SDS011;39167;52.794;6.892;2022-08-01T03:07:06;8.63;;;4.65;;
53281;SDS011;39167;52.794;6.892;2022-08-01T03:09:35;7.60;;;4.57;;
53281;SDS011;39167;52.794;6.892;2022-08-01T03:12:04;7.10;;;4.28;;
53281;SDS011;39167;52.794;6.892;2022-08-01T03:14:35;4.85;;;3.45;;
53281;SDS011;39167;52.794;6.892;2022-08-01T03:17:03;4.18;;;3.00;;
53281;SDS011;39167;52.794;6.892;2022-08-01T03:19:30;7.85;;;3.45;;
53281;SDS011;39167;52.794;6.892;2022-08-01T03:21:58;5.28;;;3.00;;
53281;SDS011;39167;52.794;6.892;2022-08-01T03:24:28;8.40;;;3.67;;
53281;SDS011;39167;52.794;6.892;2022-08-01T03:26:54;6.57;;;2.97;;
53281;SDS011;39167;52.794;6.892;2022-08-01T03:29:24;6.45;;;2.55;;
53281;SDS011;39167;52.794;6.892;2022-08-01T03:31:51;6.28;;;2.90;;
53281;SDS011;39167;52.794;6.892;2022-08-01T03:34:18;5.53;;;2.42;;
53281;SDS011;39167;52.794;6.892;2022-08-01T03:36:49;3.35;;;2.25;;
53281;SDS011;39167;52.794;6.892;2022-08-01T03:39:34;6.18;;;2.10;;
53281;SDS011;39167;52.794;6.892;2022-08-01T03:42:14;8.00;;;2.38;;
53281;SDS011;39167;52.794;6.892;2022-08-01T03:44:56;4.22;;;2.20;;
53281;SDS011;39167;52.794;6.892;2022-08-01T03:47:26;7.25;;;2.60;;
53281;SDS011;39167;52.794;6.892;2022-08-01T03:49:56;7.60;;;2.60;;
53281;SDS011;39167;52.794;6.892;2022-08-01T03:52:24;5.30;;;2.17;;
53281;SDS011;39167;52.794;6.892;2022-08-01T03:54:53;7.00;;;2.28;;
53281;SDS011;39167;52.794;6.892;2022-08-01T03:57:21;5.18;;;1.92;;
53281;SDS011;39167;52.794;6.892;2022-08-01T03:59:48;10.50;;;2.50;;
53281;SDS011;39167;52.794;6.892;2022-08-01T04:02:15;6.95;;;2.40;;
53281;SDS011;39167;52.794;6.892;2022-08-01T04:04:41;4.50;;;1.67;;
53281;SDS011;39167;52.794;6.892;2022-08-01T04:07:27;5.97;;;2.03;;
53281;SDS011;39167;52.794;6.892;2022-08-01T04:09:54;5.80;;;2.40;;
53281;SDS011;39167;52.794;6.892;2022-08-01T04:12:20;9.20;;;2.42;;
53281;SDS011;39167;52.794;6.892;2022-08-01T04:14:46;7.45;;;2.05;;
53281;SDS011;39167;52.794;6.892;2022-08-01T04:17:12;3.08;;;1.70;;
53281;SDS011;39167;52.794;6.892;2022-08-01T04:19:38;4.80;;;2.10;;
53281;SDS011;39167;52.794;6.892;2022-08-01T04:22:04;5.45;;;2.00;;
53281;SDS011;39167;52.794;6.892;2022-08-01T04:24:32;4.63;;;1.60;;
53281;SDS011;39167;52.794;6.892;2022-08-01T04:27:00;4.88;;;1.90;;
53281;SDS011;39167;52.794;6.892;2022-08-01T04:29:29;6.38;;;1.85;;
53281;SDS011;39167;52.794;6.892;2022-08-01T04:31:56;3.85;;;1.90;;
53281;SDS011;39167;52.794;6.892;2022-08-01T04:34:25;6.43;;;1.80;;
53281;SDS011;39167;52.794;6.892;2022-08-01T04:36:55;5.65;;;2.33;;
53281;SDS011;39167;52.794;6.892;2022-08-01T04:39:25;5.43;;;2.17;;
53281;SDS011;39167;52.794;6.892;2022-08-01T04:44:23;9.90;;;2.08;;
53281;SDS011;39167;52.794;6.892;2022-08-01T04:46:50;8.30;;;2.28;;
53281;SDS011;39167;52.794;6.892;2022-08-01T04:49:19;7.93;;;1.92;;
53281;SDS011;39167;52.794;6.892;2022-08-01T04:51:52;5.38;;;2.25;;
53281;SDS011;39167;52.794;6.892;2022-08-01T04:54:29;6.60;;;2.13;;
53281;SDS011;39167;52.794;6.892;2022-08-01T04:56:58;7.85;;;2.10;;
53281;SDS011;39167;52.794;6.892;2022-08-01T04:59:25;4.88;;;1.85;;
53281;SDS011;39167;52.794;6.892;2022-08-01T05:02:08;4.50;;;1.80;;
53281;SDS011;39167;52.794;6.892;2022-08-01T05:04:39;5.53;;;1.92;;
53281;SDS011;39167;52.794;6.892;2022-08-01T05:07:07;8.43;;;2.70;;
53281;SDS011;39167;52.794;6.892;2022-08-01T05:09:33;5.72;;;2.40;;
53281;SDS011;39167;52.794;6.892;2022-08-01T05:12:00;7.00;;;2.13;;
53281;SDS011;39167;52.794;6.892;2022-08-01T05:14:28;5.93;;;2.65;;
53281;SDS011;39167;52.794;6.892;2022-08-01T05:16:56;5.45;;;2.00;;
53281;SDS011;39167;52.794;6.892;2022-08-01T05:19:23;10.20;;;2.67;;
53281;SDS011;39167;52.794;6.892;2022-08-01T05:21:49;10.43;;;2.80;;
53281;SDS011;39167;52.794;6.892;2022-08-01T05:24:15;8.02;;;2.22;;
53281;SDS011;39167;52.794;6.892;2022-08-01T05:26:40;4.93;;;2.15;;
53281;SDS011;39167;52.794;6.892;2022-08-01T05:29:06;13.00;;;3.58;;
53281;SDS011;39167;52.794;6.892;2022-08-01T05:31:32;9.60;;;2.55;;
53281;SDS011;39167;52.794;6.892;2022-08-01T05:34:02;9.52;;;2.83;;
53281;SDS011;39167;52.794;6.892;2022-08-01T05:36:28;9.95;;;2.75;;
53281;SDS011;39167;52.794;6.892;2022-08-01T05:38:54;9.60;;;3.13;;
53281;SDS011;39167;52.794;6.892;2022-08-01T05:41:20;11.02;;;3.17;;
53281;SDS011;39167;52.794;6.892;2022-08-01T05:43:46;11.68;;;3.50;;
53281;SDS011;39167;52.794;6.892;2022-08-01T05:46:12;9.85;;;2.90;;
53281;SDS011;39167;52.794;6.892;2022-08-01T05:48:38;8.93;;;2.50;;
53281;SDS011;39167;52.794;6.892;2022-08-01T05:51:03;9.93;;;3.40;;
53281;SDS011;39167;52.794;6.892;2022-08-01T05:53:29;8.85;;;3.05;;
53281;SDS011;39167;52.794;6.892;2022-08-01T05:55:55;8.52;;;3.25;;
53281;SDS011;39167;52.794;6.892;2022-08-01T05:58:21;11.65;;;3.30;;
53281;SDS011;39167;52.794;6.892;2022-08-01T06:00:47;14.15;;;3.30;;
53281;SDS011;39167;52.794;6.892;2022-08-01T06:03:12;10.27;;;3.13;;
53281;SDS011;39167;52.794;6.892;2022-08-01T06:05:39;14.45;;;3.40;;
53281;SDS011;39167;52.794;6.892;2022-08-01T06:08:05;13.55;;;3.55;;
53281;SDS011;39167;52.794;6.892;2022-08-01T06:10:31;13.13;;;3.38;;
53281;SDS011;39167;52.794;6.892;2022-08-01T06:12:56;11.18;;;2.75;;
53281;SDS011;39167;52.794;6.892;2022-08-01T06:15:22;16.25;;;4.13;;
53281;SDS011;39167;52.794;6.892;2022-08-01T06:17:48;9.60;;;3.20;;
53281;SDS011;39167;52.794;6.892;2022-08-01T06:20:13;14.05;;;3.28;;
53281;SDS011;39167;52.794;6.892;2022-08-01T06:22:39;16.30;;;2.97;;
53281;SDS011;39167;52.794;6.892;2022-08-01T06:25:05;13.88;;;3.08;;
53281;SDS011;39167;52.794;6.892;2022-08-01T06:27:33;12.95;;;3.03;;
53281;SDS011;39167;52.794;6.892;2022-08-01T06:30:00;14.65;;;3.00;;
53281;SDS011;39167;52.794;6.892;2022-08-01T06:32:26;11.82;;;3.67;;
53281;SDS011;39167;52.794;6.892;2022-08-01T06:34:52;14.73;;;3.45;;
53281;SDS011;39167;52.794;6.892;2022-08-01T06:37:18;9.85;;;3.05;;
53281;SDS011;39167;52.794;6.892;2022-08-01T06:39:44;10.52;;;3.08;;
53281;SDS011;39167;52.794;6.892;2022-08-01T06:42:10;16.40;;;2.92;;
53281;SDS011;39167;52.794;6.892;2022-08-01T06:44:35;9.52;;;3.42;;
53281;SDS011;39167;52.794;6.892;2022-08-01T06:47:01;14.38;;;3.20;;
53281;SDS011;39167;52.794;6.892;2022-08-01T06:49:27;13.35;;;3.47;;
53281;SDS011;39167;52.794;6.892;2022-08-01T06:51:52;14.88;;;2.75;;
53281;SDS011;39167;52.794;6.892;2022-08-01T06:54:18;14.70;;;3.38;;
53281;SDS011;39167;52.794;6.892;2022-08-01T06:56:44;13.52;;;3.67;;
53281;SDS011;39167;52.794;6.892;2022-08-01T06:59:09;17.42;;;3.63;;
53281;SDS011;39167;52.794;6.892;2022-08-01T07:01:35;16.42;;;3.45;;
53281;SDS011;39167;52.794;6.892;2022-08-01T07:04:01;15.30;;;3.90;;
53281;SDS011;39167;52.794;6.892;2022-08-01T07:06:28;19.15;;;3.25;;
53281;SDS011;39167;52.794;6.892;2022-08-01T07:08:53;13.57;;;3.00;;
53281;SDS011;39167;52.794;6.892;2022-08-01T07:11:20;13.85;;;3.10;;
53281;SDS011;39167;52.794;6.892;2022-08-01T07:13:47;18.75;;;3.80;;
53281;SDS011;39167;52.794;6.892;2022-08-01T07:16:15;16.85;;;4.05;;
53281;SDS011;39167;52.794;6.892;2022-08-01T07:18:42;17.38;;;4.03;;
53281;SDS011;39167;52.794;6.892;2022-08-01T07:21:08;24.50;;;4.25;;
53281;SDS011;39167;52.794;6.892;2022-08-01T07:23:34;19.05;;;4.03;;
53281;SDS011;39167;52.794;6.892;2022-08-01T07:26:00;11.10;;;3.35;;
53281;SDS011;39167;52.794;6.892;2022-08-01T07:28:27;14.77;;;3.65;;
53281;SDS011;39167;52.794;6.892;2022-08-01T07:30:53;23.90;;;4.03;;
53281;SDS011;39167;52.794;6.892;2022-08-01T07:33:19;16.20;;;3.50;;
53281;SDS011;39167;52.794;6.892;2022-08-01T07:35:44;19.98;;;3.72;;
53281;SDS011;39167;52.794;6.892;2022-08-01T07:38:10;16.73;;;3.60;;
53281;SDS011;39167;52.794;6.892;2022-08-01T07:40:36;15.30;;;3.45;;
53281;SDS011;39167;52.794;6.892;2022-08-01T07:43:01;21.85;;;3.60;;
53281;SDS011;39167;52.794;6.892;2022-08-01T07:45:27;14.95;;;3.30;;
53281;SDS011;39167;52.794;6.892;2022-08-01T07:47:53;20.90;;;3.40;;
53281;SDS011;39167;52.794;6.892;2022-08-01T07:50:19;15.02;;;3.63;;
53281;SDS011;39167;52.794;6.892;2022-08-01T07:52:45;20.50;;;3.58;;
53281;SDS011;39167;52.794;6.892;2022-08-01T07:55:11;13.85;;;3.53;;
53281;SDS011;39167;52.794;6.892;2022-08-01T07:57:37;15.25;;;3.63;;
53281;SDS011;39167;52.794;6.892;2022-08-01T08:00:04;17.10;;;3.55;;
53281;SDS011;39167;52.794;6.892;2022-08-01T08:02:31;17.25;;;3.45;;
53281;SDS011;39167;52.794;6.892;2022-08-01T08:04:57;14.27;;;3.15;;
53281;SDS011;39167;52.794;6.892;2022-08-01T08:07:23;21.75;;;3.55;;
53281;SDS011;39167;52.794;6.892;2022-08-01T08:09:49;15.48;;;4.07;;
53281;SDS011;39167;52.794;6.892;2022-08-01T08:12:14;14.57;;;3.20;;
53281;SDS011;39167;52.794;6.892;2022-08-01T08:14:40;17.73;;;3.63;;
53281;SDS011;39167;52.794;6.892;2022-08-01T08:17:06;17.42;;;3.95;;
53281;SDS011;39167;52.794;6.892;2022-08-01T08:19:32;16.92;;;4.50;;
53281;SDS011;39167;52.794;6.892;2022-08-01T08:22:01;12.48;;;3.10;;
53281;SDS011;39167;52.794;6.892;2022-08-01T08:24:27;17.50;;;3.08;;
53281;SDS011;39167;52.794;6.892;2022-08-01T08:26:56;20.40;;;3.55;;
53281;SDS011;39167;52.794;6.892;2022-08-01T08:29:23;20.98;;;4.72;;
53281;SDS011;39167;52.794;6.892;2022-08-01T08:31:54;13.45;;;3.10;;
53281;SDS011;39167;52.794;6.892;2022-08-01T08:34:20;21.48;;;3.88;;
53281;SDS011;39167;52.794;6.892;2022-08-01T08:36:45;17.95;;;3.88;;
53281;SDS011;39167;52.794;6.892;2022-08-01T08:39:11;12.20;;;3.25;;
53281;SDS011;39167;52.794;6.892;2022-08-01T08:41:37;14.52;;;4.10;;
53281;SDS011;39167;52.794;6.892;2022-08-01T08:44:06;10.95;;;3.67;;
53281;SDS011;39167;52.794;6.892;2022-08-01T08:46:33;15.07;;;3.70;;
53281;SDS011;39167;52.794;6.892;2022-08-01T08:49:04;12.85;;;3.65;;
53281;SDS011;39167;52.794;6.892;2022-08-01T08:51:31;15.43;;;3.50;;
53281;SDS011;39167;52.794;6.892;2022-08-01T08:53:58;19.58;;;3.90;;
53281;SDS011;39167;52.794;6.892;2022-08-01T08:56:27;16.33;;;2.97;;
53281;SDS011;39167;52.794;6.892;2022-08-01T08:58:58;14.52;;;3.30;;
53281;SDS011;39167;52.794;6.892;2022-08-01T09:01:25;12.73;;;3.58;;
53281;SDS011;39167;52.794;6.892;2022-08-01T09:03:51;13.65;;;3.00;;
53281;SDS011;39167;52.794;6.892;2022-08-01T09:06:17;10.82;;;3.10;;
53281;SDS011;39167;52.794;6.892;2022-08-01T09:08:42;15.02;;;3.50;;
53281;SDS011;39167;52.794;6.892;2022-08-01T09:11:08;15.57;;;3.83;;
53281;SDS011;39167;52.794;6.892;2022-08-01T09:13:34;19.77;;;4.53;;
53281;SDS011;39167;52.794;6.892;2022-08-01T09:15:59;11.75;;;2.95;;
53281;SDS011;39167;52.794;6.892;2022-08-01T09:18:32;14.13;;;2.90;;
53281;SDS011;39167;52.794;6.892;2022-08-01T09:23:45;15.27;;;3.90;;
53281;SDS011;39167;52.794;6.892;2022-08-01T09:26:17;14.55;;;3.05;;
53281;SDS011;39167;52.794;6.892;2022-08-01T09:28:45;13.90;;;3.80;;
53281;SDS011;39167;52.794;6.892;2022-08-01T09:31:15;16.73;;;2.95;;
53281;SDS011;39167;52.794;6.892;2022-08-01T09:33:48;10.82;;;2.28;;
53281;SDS011;39167;52.794;6.892;2022-08-01T09:36:16;13.80;;;2.90;;
53281;SDS011;39167;52.794;6.892;2022-08-01T09:38:42;12.85;;;3.78;;
53281;SDS011;39167;52.794;6.892;2022-08-01T09:41:08;12.60;;;3.15;;
53281;SDS011;39167;52.794;6.892;2022-08-01T09:43:36;17.35;;;3.63;;
53281;SDS011;39167;52.794;6.892;2022-08-01T09:46:20;22.95;;;4.22;;
53281;SDS011;39167;52.794;6.892;2022-08-01T09:48:57;10.45;;;2.33;;
53281;SDS011;39167;52.794;6.892;2022-08-01T09:51:31;10.73;;;2.47;;
53281;SDS011;39167;52.794;6.892;2022-08-01T09:54:04;9.93;;;2.30;;
53281;SDS011;39167;52.794;6.892;2022-08-01T09:56:37;9.65;;;2.92;;
53281;SDS011;39167;52.794;6.892;2022-08-01T09:59:05;11.10;;;2.60;;
53281;SDS011;39167;52.794;6.892;2022-08-01T10:01:47;8.10;;;2.35;;
53281;SDS011;39167;52.794;6.892;2022-08-01T10:04:19;10.25;;;2.42;;
53281;SDS011;39167;52.794;6.892;2022-08-01T10:09:26;10.40;;;2.90;;
53281;SDS011;39167;52.794;6.892;2022-08-01T10:11:54;10.55;;;2.58;;
53281;SDS011;39167;52.794;6.892;2022-08-01T10:14:22;9.20;;;2.50;;
53281;SDS011;39167;52.794;6.892;2022-08-01T10:16:51;12.15;;;2.65;;
53281;SDS011;39167;52.794;6.892;2022-08-01T10:19:18;13.98;;;2.50;;
53281;SDS011;39167;52.794;6.892;2022-08-01T10:21:47;11.07;;;2.70;;
53281;SDS011;39167;52.794;6.892;2022-08-01T10:24:15;13.98;;;2.95;;
53281;SDS011;39167;52.794;6.892;2022-08-01T10:26:43;20.42;;;3.38;;
53281;SDS011;39167;52.794;6.892;2022-08-01T10:29:12;12.30;;;2.55;;
53281;SDS011;39167;52.794;6.892;2022-08-01T10:31:41;12.57;;;3.03;;
53281;SDS011;39167;52.794;6.892;2022-08-01T10:34:07;10.13;;;2.92;;
53281;SDS011;39167;52.794;6.892;2022-08-01T10:36:34;14.15;;;2.45;;
53281;SDS011;39167;52.794;6.892;2022-08-01T10:39:04;15.52;;;2.72;;
53281;SDS011;39167;52.794;6.892;2022-08-01T10:41:32;9.57;;;2.53;;
53281;SDS011;39167;52.794;6.892;2022-08-01T10:44:00;15.07;;;2.80;;
53281;SDS011;39167;52.794;6.892;2022-08-01T10:46:26;11.02;;;2.50;;
53281;SDS011;39167;52.794;6.892;2022-08-01T10:48:58;12.32;;;2.38;;
53281;SDS011;39167;52.794;6.892;2022-08-01T10:51:29;7.43;;;1.92;;
53281;SDS011;39167;52.794;6.892;2022-08-01T10:53:56;10.18;;;2.00;;
53281;SDS011;39167;52.794;6.892;2022-08-01T10:56:22;8.43;;;2.35;;
53281;SDS011;39167;52.794;6.892;2022-08-01T10:58:48;6.80;;;2.03;;
53281;SDS011;39167;52.794;6.892;2022-08-01T11:01:26;13.73;;;1.92;;
53281;SDS011;39167;52.794;6.892;2022-08-01T11:04:02;10.65;;;2.05;;
53281;SDS011;39167;52.794;6.892;2022-08-01T11:09:01;10.55;;;1.90;;
53281;SDS011;39167;52.794;6.892;2022-08-01T11:11:30;15.18;;;2.40;;
53281;SDS011;39167;52.794;6.892;2022-08-01T11:16:45;12.75;;;2.63;;
53281;SDS011;39167;52.794;6.892;2022-08-01T11:19:11;6.38;;;1.67;;
53281;SDS011;39167;52.794;6.892;2022-08-01T11:27:20;6.50;;;1.73;;
53281;SDS011;39167;52.794;6.892;2022-08-01T11:32:47;9.95;;;1.90;;
53281;SDS011;39167;52.794;6.892;2022-08-01T11:35:13;9.57;;;2.33;;
53281;SDS011;39167;52.794;6.892;2022-08-01T11:37:39;8.60;;;1.73;;
53281;SDS011;39167;52.794;6.892;2022-08-01T11:40:22;7.25;;;1.70;;
53281;SDS011;39167;52.794;6.892;2022-08-01T11:45:48;9.98;;;2.28;;
53281;SDS011;39167;52.794;6.892;2022-08-01T11:48:21;5.72;;;2.17;;
53281;SDS011;39167;52.794;6.892;2022-08-01T11:50:49;9.55;;;2.00;;
53281;SDS011;39167;52.794;6.892;2022-08-01T11:53:16;6.80;;;2.03;;
53281;SDS011;39167;52.794;6.892;2022-08-01T11:55:47;9.15;;;2.17;;
53281;SDS011;39167;52.794;6.892;2022-08-01T11:58:14;8.73;;;1.77;;
53281;SDS011;39167;52.794;6.892;2022-08-01T12:00:41;8.93;;;1.83;;
53281;SDS011;39167;52.794;6.892;2022-08-01T12:03:14;3.95;;;1.67;;
53281;SDS011;39167;52.794;6.892;2022-08-01T12:05:40;7.85;;;1.90;;
53281;SDS011;39167;52.794;6.892;2022-08-01T12:08:09;7.95;;;1.55;;
53281;SDS011;39167;52.794;6.892;2022-08-01T12:10:35;8.65;;;1.88;;
53281;SDS011;39167;52.794;6.892;2022-08-01T12:13:03;6.85;;;1.90;;
53281;SDS011;39167;52.794;6.892;2022-08-01T12:15:34;9.25;;;1.90;;
53281;SDS011;39167;52.794;6.892;2022-08-01T12:18:01;8.55;;;2.28;;
53281;SDS011;39167;52.794;6.892;2022-08-01T12:20:36;10.07;;;2.13;;
53281;SDS011;39167;52.794;6.892;2022-08-01T12:23:04;7.60;;;1.90;;
53281;SDS011;39167;52.794;6.892;2022-08-01T12:25:32;6.82;;;2.10;;
53281;SDS011;39167;52.794;6.892;2022-08-01T12:28:00;6.22;;;1.83;;
53281;SDS011;39167;52.794;6.892;2022-08-01T12:30:28;10.18;;;1.50;;
53281;SDS011;39167;52.794;6.892;2022-08-01T12:33:00;9.05;;;1.60;;
53281;SDS011;39167;52.794;6.892;2022-08-01T12:35:30;5.15;;;1.33;;
53281;SDS011;39167;52.794;6.892;2022-08-01T12:37:57;6.32;;;1.73;;
53281;SDS011;39167;52.794;6.892;2022-08-01T12:40:32;6.82;;;1.52;;
53281;SDS011;39167;52.794;6.892;2022-08-01T12:43:00;6.82;;;1.33;;
53281;SDS011;39167;52.794;6.892;2022-08-01T12:45:35;5.97;;;1.10;;
53281;SDS011;39167;52.794;6.892;2022-08-01T12:48:14;5.03;;;1.65;;
53281;SDS011;39167;52.794;6.892;2022-08-01T12:50:41;8.13;;;1.52;;
53281;SDS011;39167;52.794;6.892;2022-08-01T12:53:09;10.98;;;1.75;;
53281;SDS011;39167;52.794;6.892;2022-08-01T12:55:45;6.40;;;1.50;;
53281;SDS011;39167;52.794;6.892;2022-08-01T12:58:12;8.63;;;1.30;;
53281;SDS011;39167;52.794;6.892;2022-08-01T13:00:41;6.03;;;1.38;;
53281;SDS011;39167;52.794;6.892;2022-08-01T13:03:13;7.38;;;2.20;;
53281;SDS011;39167;52.794;6.892;2022-08-01T13:05:44;10.43;;;1.55;;
53281;SDS011;39167;52.794;6.892;2022-08-01T13:08:15;7.25;;;1.45;;
53281;SDS011;39167;52.794;6.892;2022-08-01T13:10:42;8.90;;;1.95;;
53281;SDS011;39167;52.794;6.892;2022-08-01T13:13:09;3.67;;;1.00;;
53281;SDS011;39167;52.794;6.892;2022-08-01T13:15:37;6.63;;;1.33;;
53281;SDS011;39167;52.794;6.892;2022-08-01T13:18:24;9.18;;;1.92;;
53281;SDS011;39167;52.794;6.892;2022-08-01T13:23:36;4.68;;;1.40;;
53281;SDS011;39167;52.794;6.892;2022-08-01T13:26:03;5.57;;;1.48;;
53281;SDS011;39167;52.794;6.892;2022-08-01T13:28:29;7.63;;;1.58;;
53281;SDS011;39167;52.794;6.892;2022-08-01T13:31:03;6.07;;;1.77;;
53281;SDS011;39167;52.794;6.892;2022-08-01T13:33:43;6.70;;;1.77;;
53281;SDS011;39167;52.794;6.892;2022-08-01T13:36:10;7.37;;;1.57;;
53281;SDS011;39167;52.794;6.892;2022-08-01T13:38:37;3.72;;;1.08;;
53281;SDS011;39167;52.794;6.892;2022-08-01T13:41:22;8.27;;;1.50;;
53281;SDS011;39167;52.794;6.892;2022-08-01T13:43:48;9.30;;;1.55;;
53281;SDS011;39167;52.794;6.892;2022-08-01T13:46:13;8.50;;;1.73;;
53281;SDS011;39167;52.794;6.892;2022-08-01T13:48:39;4.78;;;1.60;;
53281;SDS011;39167;52.794;6.892;2022-08-01T13:51:05;5.82;;;1.33;;
53281;SDS011;39167;52.794;6.892;2022-08-01T13:53:30;5.53;;;1.60;;
53281;SDS011;39167;52.794;6.892;2022-08-01T13:55:56;6.70;;;1.40;;
53281;SDS011;39167;52.794;6.892;2022-08-01T13:58:22;5.82;;;1.48;;
53281;SDS011;39167;52.794;6.892;2022-08-01T14:00:48;4.82;;;1.15;;
53281;SDS011;39167;52.794;6.892;2022-08-01T14:03:13;5.72;;;1.50;;
53281;SDS011;39167;52.794;6.892;2022-08-01T14:05:41;9.23;;;1.50;;
53281;SDS011;39167;52.794;6.892;2022-08-01T14:08:10;8.25;;;1.40;;
53281;SDS011;39167;52.794;6.892;2022-08-01T14:10:37;5.22;;;1.05;;
53281;SDS011;39167;52.794;6.892;2022-08-01T14:13:02;6.05;;;1.05;;
53281;SDS011;39167;52.794;6.892;2022-08-01T14:15:28;12.30;;;1.67;;
53281;SDS011;39167;52.794;6.892;2022-08-01T14:17:56;5.65;;;1.20;;
53281;SDS011;39167;52.794;6.892;2022-08-01T14:20:22;5.30;;;1.35;;
53281;SDS011;39167;52.794;6.892;2022-08-01T14:22:48;2.50;;;1.00;;
53281;SDS011;39167;52.794;6.892;2022-08-01T14:25:13;7.72;;;1.50;;
53281;SDS011;39167;52.794;6.892;2022-08-01T14:27:39;5.40;;;1.48;;
53281;SDS011;39167;52.794;6.892;2022-08-01T14:30:07;7.45;;;1.92;;
53281;SDS011;39167;52.794;6.892;2022-08-01T14:32:33;7.72;;;1.60;;
53281;SDS011;39167;52.794;6.892;2022-08-01T14:35:00;7.43;;;1.55;;
53281;SDS011;39167;52.794;6.892;2022-08-01T14:37:27;8.50;;;1.80;;
53281;SDS011;39167;52.794;6.892;2022-08-01T14:39:54;5.68;;;1.38;;
53281;SDS011;39167;52.794;6.892;2022-08-01T14:42:20;5.88;;;1.70;;
53281;SDS011;39167;52.794;6.892;2022-08-01T14:44:46;7.82;;;1.25;;
53281;SDS011;39167;52.794;6.892;2022-08-01T14:47:12;7.00;;;1.50;;
53281;SDS011;39167;52.794;6.892;2022-08-01T14:49:37;6.55;;;0.93;;
53281;SDS011;39167;52.794;6.892;2022-08-01T14:52:03;6.80;;;1.88;;
53281;SDS011;39167;52.794;6.892;2022-08-01T14:54:29;6.15;;;1.50;;
53281;SDS011;39167;52.794;6.892;2022-08-01T14:56:55;5.22;;;1.63;;
53281;SDS011;39167;52.794;6.892;2022-08-01T14:59:21;3.75;;;1.10;;
53281;SDS011;39167;52.794;6.892;2022-08-01T15:01:46;6.95;;;1.73;;
53281;SDS011;39167;52.794;6.892;2022-08-01T15:04:12;5.10;;;1.40;;
53281;SDS011;39167;52.794;6.892;2022-08-01T15:06:38;4.75;;;1.10;;
53281;SDS011;39167;52.794;6.892;2022-08-01T15:09:03;5.55;;;1.40;;
53281;SDS011;39167;52.794;6.892;2022-08-01T15:11:29;6.38;;;1.10;;
53281;SDS011;39167;52.794;6.892;2022-08-01T15:13:55;7.43;;;1.70;;
53281;SDS011;39167;52.794;6.892;2022-08-01T15:16:39;7.50;;;1.30;;
53281;SDS011;39167;52.794;6.892;2022-08-01T15:19:05;8.45;;;1.58;;
53281;SDS011;39167;52.794;6.892;2022-08-01T15:21:30;5.30;;;1.55;;
53281;SDS011;39167;52.794;6.892;2022-08-01T15:23:56;5.32;;;1.48;;